sensor_id;sensor_type;location;lat;lon;timestamp;pressure;altitude;pressure_sealevel;temperature;humidity
3428;BME280;1727;42.624;23.406;2023-03-20T00:01:08;95176.63;;;8.54;67.09
3428;BME280;1727;42.624;23.406;2023-03-20T00:03:36;95185.31;;;8.54;67.73
3428;BME280;1727;42.624;23.406;2023-03-20T00:06:03;95181.28;;;8.37;68.69
3428;BME280;1727;42.624;23.406;2023-03-20T00:08:29;95170.94;;;8.23;68.25
3428;BME280;1727;42.624;23.406;2023-03-20T00:10:58;95182.19;;;8.13;68.70
3428;BME280;1727;42.624;23.406;2023-03-20T00:13:25;95164.28;;;8.06;68.97
3428;BME280;1727;42.624;23.406;2023-03-20T00:15:53;95167.63;;;8.08;69.18
3428;BME280;1727;42.624;23.406;2023-03-20T00:18:21;95173.69;;;8.09;70.07
3428;BME280;1727;42.624;23.406;2023-03-20T00:20:50;95167.00;;;8.18;70.37
3428;BME280;1727;42.624;23.406;2023-03-20T00:23:18;95162.09;;;8.13;69.83
3428;BME280;1727;42.624;23.406;2023-03-20T00:25:46;95153.22;;;8.16;69.60
3428;BME280;1727;42.624;23.406;2023-03-20T00:28:30;95155.09;;;8.14;69.41
3428;BME280;1727;42.624;23.406;2023-03-20T00:31:02;95157.94;;;8.11;68.70
3428;BME280;1727;42.624;23.406;2023-03-20T00:33:29;95153.44;;;8.13;69.10
3428;BME280;1727;42.624;23.406;2023-03-20T00:35:56;95148.94;;;8.15;69.33
3428;BME280;1727;42.624;23.406;2023-03-20T00:38:23;95144.63;;;8.14;69.40
3428;BME280;1727;42.624;23.406;2023-03-20T00:40:50;95144.75;;;8.12;69.02
3428;BME280;1727;42.624;23.406;2023-03-20T00:43:17;95142.31;;;8.09;69.17
3428;BME280;1727;42.624;23.406;2023-03-20T00:45:45;95138.38;;;8.03;69.72
3428;BME280;1727;42.624;23.406;2023-03-20T00:48:13;95140.88;;;8.05;69.27
3428;BME280;1727;42.624;23.406;2023-03-20T00:50:41;95147.19;;;7.90;68.90
3428;BME280;1727;42.624;23.406;2023-03-20T00:53:09;95146.16;;;7.92;69.75
3428;BME280;1727;42.624;23.406;2023-03-20T00:55:37;95150.44;;;7.93;69.57
3428;BME280;1727;42.624;23.406;2023-03-20T00:58:05;95143.75;;;7.89;69.31
3428;BME280;1727;42.624;23.406;2023-03-20T01:00:37;95151.16;;;7.95;69.18
3428;BME280;1727;42.624;23.406;2023-03-20T01:03:13;95143.81;;;8.00;69.26
3428;BME280;1727;42.624;23.406;2023-03-20T01:05:41;95144.09;;;8.08;69.03
3428;BME280;1727;42.624;23.406;2023-03-20T01:08:11;95133.66;;;8.08;68.87
3428;BME280;1727;42.624;23.406;2023-03-20T01:10:39;95133.47;;;8.12;69.24
3428;BME280;1727;42.624;23.406;2023-03-20T01:13:15;95124.97;;;8.08;68.18
3428;BME280;1727;42.624;23.406;2023-03-20T01:15:43;95134.06;;;8.15;68.83
3428;BME280;1727;42.624;23.406;2023-03-20T01:18:13;95139.19;;;8.17;68.46
3428;BME280;1727;42.624;23.406;2023-03-20T01:20:41;95140.34;;;8.13;68.54
3428;BME280;1727;42.624;23.406;2023-03-20T01:23:09;95136.06;;;8.12;67.71
3428;BME280;1727;42.624;23.406;2023-03-20T01:25:36;95130.13;;;8.10;68.01
3428;BME280;1727;42.624;23.406;2023-03-20T01:28:12;95131.38;;;8.04;67.53
3428;BME280;1727;42.624;23.406;2023-03-20T01:30:39;95141.00;;;8.03;67.74
3428;BME280;1727;42.624;23.406;2023-03-20T01:33:13;95140.47;;;7.98;67.81
3428;BME280;1727;42.624;23.406;2023-03-20T01:35:40;95146.03;;;7.94;68.04
3428;BME280;1727;42.624;23.406;2023-03-20T01:38:11;95134.38;;;7.74;68.04
3428;BME280;1727;42.624;23.406;2023-03-20T01:40:43;95135.66;;;7.56;68.89
3428;BME280;1727;42.624;23.406;2023-03-20T01:43:15;95138.78;;;7.61;68.42
3428;BME280;1727;42.624;23.406;2023-03-20T01:45:48;95141.59;;;7.58;68.79
3428;BME280;1727;42.624;23.406;2023-03-20T01:48:20;95145.88;;;7.59;68.88
3428;BME280;1727;42.624;23.406;2023-03-20T01:50:49;95143.72;;;7.53;68.92
3428;BME280;1727;42.624;23.406;2023-03-20T01:53:18;95142.97;;;7.25;69.50
3428;BME280;1727;42.624;23.406;2023-03-20T01:55:47;95148.28;;;7.36;69.53
3428;BME280;1727;42.624;23.406;2023-03-20T01:58:21;95154.03;;;7.41;69.79
3428;BME280;1727;42.624;23.406;2023-03-20T02:00:49;95152.38;;;7.40;69.62
3428;BME280;1727;42.624;23.406;2023-03-20T02:03:19;95148.19;;;7.38;69.96
3428;BME280;1727;42.624;23.406;2023-03-20T02:05:47;95147.66;;;7.33;70.34
3428;BME280;1727;42.624;23.406;2023-03-20T02:08:23;95147.25;;;7.26;69.99
3428;BME280;1727;42.624;23.406;2023-03-20T02:10:51;95141.91;;;7.15;70.71
3428;BME280;1727;42.624;23.406;2023-03-20T02:13:19;95139.72;;;7.09;70.77
3428;BME280;1727;42.624;23.406;2023-03-20T02:15:58;95138.25;;;7.05;71.25
3428;BME280;1727;42.624;23.406;2023-03-20T02:18:28;95136.44;;;6.93;71.71
3428;BME280;1727;42.624;23.406;2023-03-20T02:21:33;95138.66;;;6.99;72.76
3428;BME280;1727;42.624;23.406;2023-03-20T02:24:31;95137.72;;;7.00;72.34
3428;BME280;1727;42.624;23.406;2023-03-20T02:27:08;95146.28;;;7.02;72.12
3428;BME280;1727;42.624;23.406;2023-03-20T02:30:08;95146.91;;;7.05;71.66
3428;BME280;1727;42.624;23.406;2023-03-20T02:39:24;95146.72;;;7.21;70.82
3428;BME280;1727;42.624;23.406;2023-03-20T02:41:59;95143.91;;;7.24;70.72
3428;BME280;1727;42.624;23.406;2023-03-20T02:44:33;95143.59;;;7.29;70.21
3428;BME280;1727;42.624;23.406;2023-03-20T02:47:09;95149.97;;;7.37;69.68
3428;BME280;1727;42.624;23.406;2023-03-20T02:49:48;95143.19;;;7.35;70.25
3428;BME280;1727;42.624;23.406;2023-03-20T02:52:20;95136.09;;;7.24;70.66
3428;BME280;1727;42.624;23.406;2023-03-20T02:55:01;95141.50;;;7.21;71.31
3428;BME280;1727;42.624;23.406;2023-03-20T02:57:40;95132.09;;;7.06;71.29
3428;BME280;1727;42.624;23.406;2023-03-20T03:00:12;95127.50;;;6.97;72.06
3428;BME280;1727;42.624;23.406;2023-03-20T03:02:46;95121.94;;;6.89;72.97
3428;BME280;1727;42.624;23.406;2023-03-20T03:05:17;95124.34;;;6.79;72.67
3428;BME280;1727;42.624;23.406;2023-03-20T03:07:49;95116.63;;;6.77;73.59
3428;BME280;1727;42.624;23.406;2023-03-20T03:10:22;95118.81;;;6.71;73.11
3428;BME280;1727;42.624;23.406;2023-03-20T03:12:52;95123.75;;;6.61;73.51
3428;BME280;1727;42.624;23.406;2023-03-20T03:15:27;95123.03;;;6.59;74.00
3428;BME280;1727;42.624;23.406;2023-03-20T03:17:57;95122.66;;;6.65;74.82
3428;BME280;1727;42.624;23.406;2023-03-20T03:20:28;95121.31;;;6.72;74.47
3428;BME280;1727;42.624;23.406;2023-03-20T03:22:58;95123.19;;;6.70;73.27
3428;BME280;1727;42.624;23.406;2023-03-20T03:25:28;95113.22;;;6.63;73.84
3428;BME280;1727;42.624;23.406;2023-03-20T03:28:00;95113.06;;;6.66;74.10
3428;BME280;1727;42.624;23.406;2023-03-20T03:30:30;95113.69;;;6.69;74.24
3428;BME280;1727;42.624;23.406;2023-03-20T03:33:08;95117.03;;;6.71;73.73
3428;BME280;1727;42.624;23.406;2023-03-20T03:35:39;95124.31;;;6.66;73.39
3428;BME280;1727;42.624;23.406;2023-03-20T03:38:17;95121.78;;;6.65;72.96
3428;BME280;1727;42.624;23.406;2023-03-20T03:40:52;95116.50;;;6.66;72.78
3428;BME280;1727;42.624;23.406;2023-03-20T03:43:27;95124.59;;;6.62;73.42
3428;BME280;1727;42.624;23.406;2023-03-20T03:45:58;95120.84;;;6.53;73.45
3428;BME280;1727;42.624;23.406;2023-03-20T03:48:29;95126.56;;;6.58;73.65
3428;BME280;1727;42.624;23.406;2023-03-20T03:51:01;95123.13;;;6.58;72.80
3428;BME280;1727;42.624;23.406;2023-03-20T03:53:32;95125.88;;;6.69;73.36
3428;BME280;1727;42.624;23.406;2023-03-20T03:56:04;95137.88;;;6.71;72.57
3428;BME280;1727;42.624;23.406;2023-03-20T03:58:34;95132.88;;;6.68;73.25
3428;BME280;1727;42.624;23.406;2023-03-20T04:01:04;95136.31;;;6.69;73.24
3428;BME280;1727;42.624;23.406;2023-03-20T04:03:35;95133.50;;;6.72;73.71
3428;BME280;1727;42.624;23.406;2023-03-20T04:06:04;95126.53;;;6.72;73.87
3428;BME280;1727;42.624;23.406;2023-03-20T04:08:33;95126.63;;;6.71;73.49
3428;BME280;1727;42.624;23.406;2023-03-20T04:11:01;95113.69;;;6.69;73.08
3428;BME280;1727;42.624;23.406;2023-03-20T04:13:28;95116.00;;;6.74;72.42
3428;BME280;1727;42.624;23.406;2023-03-20T04:15:55;95119.97;;;6.79;72.86
3428;BME280;1727;42.624;23.406;2023-03-20T04:18:21;95111.72;;;6.73;72.91
3428;BME280;1727;42.624;23.406;2023-03-20T04:20:48;95114.00;;;6.77;73.11
3428;BME280;1727;42.624;23.406;2023-03-20T04:23:16;95115.06;;;6.75;72.53
3428;BME280;1727;42.624;23.406;2023-03-20T04:32:28;95114.63;;;6.68;72.12
3428;BME280;1727;42.624;23.406;2023-03-20T04:35:04;95113.63;;;6.57;72.70
3428;BME280;1727;42.624;23.406;2023-03-20T04:37:31;95115.50;;;6.42;72.86
3428;BME280;1727;42.624;23.406;2023-03-20T04:39:57;95111.75;;;6.46;72.88
3428;BME280;1727;42.624;23.406;2023-03-20T04:42:24;95108.00;;;6.50;72.90
3428;BME280;1727;42.624;23.406;2023-03-20T04:44:51;95106.34;;;6.62;72.87
3428;BME280;1727;42.624;23.406;2023-03-20T04:47:18;95117.56;;;6.76;71.68
3428;BME280;1727;42.624;23.406;2023-03-20T04:53:08;95114.56;;;7.08;69.88
3428;BME280;1727;42.624;23.406;2023-03-20T04:55:34;95126.38;;;7.26;70.03
3428;BME280;1727;42.624;23.406;2023-03-20T04:58:01;95119.56;;;7.36;70.23
3428;BME280;1727;42.624;23.406;2023-03-20T05:00:28;95134.59;;;7.45;70.29
3428;BME280;1727;42.624;23.406;2023-03-20T05:02:55;95139.72;;;7.60;70.46
3428;BME280;1727;42.624;23.406;2023-03-20T05:05:21;95142.72;;;7.79;70.45
3428;BME280;1727;42.624;23.406;2023-03-20T05:07:49;95145.22;;;7.93;69.08
3428;BME280;1727;42.624;23.406;2023-03-20T05:10:18;95149.97;;;8.12;68.49
3428;BME280;1727;42.624;23.406;2023-03-20T05:12:45;95142.88;;;8.14;68.13
3428;BME280;1727;42.624;23.406;2023-03-20T05:15:13;95162.28;;;8.23;68.19
3428;BME280;1727;42.624;23.406;2023-03-20T05:17:39;95152.81;;;8.33;68.23
3428;BME280;1727;42.624;23.406;2023-03-20T05:20:07;95155.31;;;8.47;67.96
3428;BME280;1727;42.624;23.406;2023-03-20T05:22:34;95154.03;;;8.53;67.50
3428;BME280;1727;42.624;23.406;2023-03-20T05:25:01;95157.03;;;8.59;67.50
3428;BME280;1727;42.624;23.406;2023-03-20T05:27:29;95152.03;;;8.56;67.42
3428;BME280;1727;42.624;23.406;2023-03-20T05:29:56;95157.81;;;8.12;67.99
3428;BME280;1727;42.624;23.406;2023-03-20T05:32:22;95160.50;;;8.23;67.64
3428;BME280;1727;42.624;23.406;2023-03-20T05:34:49;95162.06;;;8.38;68.18
3428;BME280;1727;42.624;23.406;2023-03-20T05:37:16;95160.31;;;8.50;68.09
3428;BME280;1727;42.624;23.406;2023-03-20T05:39:45;95170.13;;;8.59;67.81
3428;BME280;1727;42.624;23.406;2023-03-20T05:42:11;95162.50;;;8.80;69.42
3428;BME280;1727;42.624;23.406;2023-03-20T05:44:40;95158.19;;;9.03;69.57
3428;BME280;1727;42.624;23.406;2023-03-20T05:47:06;95158.16;;;9.38;69.70
3428;BME280;1727;42.624;23.406;2023-03-20T05:49:36;95157.09;;;9.74;67.68
3428;BME280;1727;42.624;23.406;2023-03-20T05:52:02;95160.44;;;9.99;67.87
3428;BME280;1727;42.624;23.406;2023-03-20T05:54:29;95156.06;;;10.21;64.79
3428;BME280;1727;42.624;23.406;2023-03-20T05:56:56;95157.06;;;10.52;62.08
3428;BME280;1727;42.624;23.406;2023-03-20T05:59:23;95165.72;;;10.75;62.44
3428;BME280;1727;42.624;23.406;2023-03-20T06:01:51;95165.00;;;11.05;61.08
3428;BME280;1727;42.624;23.406;2023-03-20T06:04:18;95176.59;;;11.24;59.06
3428;BME280;1727;42.624;23.406;2023-03-20T06:06:45;95159.72;;;11.37;59.27
3428;BME280;1727;42.624;23.406;2023-03-20T06:09:12;95161.69;;;11.45;56.91
3428;BME280;1727;42.624;23.406;2023-03-20T06:11:38;95158.44;;;11.32;57.07
3428;BME280;1727;42.624;23.406;2023-03-20T06:14:05;95159.66;;;11.28;56.57
3428;BME280;1727;42.624;23.406;2023-03-20T06:16:32;95153.47;;;11.17;56.87
3428;BME280;1727;42.624;23.406;2023-03-20T06:19:00;95160.94;;;11.33;57.18
3428;BME280;1727;42.624;23.406;2023-03-20T06:21:27;95147.31;;;11.49;57.15
3428;BME280;1727;42.624;23.406;2023-03-20T06:23:54;95156.09;;;11.80;66.93
3428;BME280;1727;42.624;23.406;2023-03-20T06:26:22;95160.63;;;11.99;57.27
3428;BME280;1727;42.624;23.406;2023-03-20T06:28:49;95165.72;;;12.21;57.69
3428;BME280;1727;42.624;23.406;2023-03-20T06:31:16;95178.22;;;12.38;55.07
3428;BME280;1727;42.624;23.406;2023-03-20T06:33:43;95163.81;;;12.43;54.08
3428;BME280;1727;42.624;23.406;2023-03-20T06:36:11;95166.09;;;12.66;53.94
3428;BME280;1727;42.624;23.406;2023-03-20T06:38:38;95162.25;;;12.90;54.39
3428;BME280;1727;42.624;23.406;2023-03-20T06:41:08;95159.50;;;13.11;53.80
3428;BME280;1727;42.624;23.406;2023-03-20T06:43:37;95158.94;;;13.26;53.02
3428;BME280;1727;42.624;23.406;2023-03-20T06:46:08;95163.81;;;13.21;53.28
3428;BME280;1727;42.624;23.406;2023-03-20T06:48:35;95156.44;;;13.25;53.72
3428;BME280;1727;42.624;23.406;2023-03-20T06:51:02;95163.53;;;13.34;53.88
3428;BME280;1727;42.624;23.406;2023-03-20T06:53:31;95167.25;;;13.51;53.14
3428;BME280;1727;42.624;23.406;2023-03-20T06:55:57;95166.13;;;13.53;51.87
3428;BME280;1727;42.624;23.406;2023-03-20T06:58:24;95155.28;;;13.56;52.30
3428;BME280;1727;42.624;23.406;2023-03-20T07:00:51;95161.53;;;13.55;51.50
3428;BME280;1727;42.624;23.406;2023-03-20T07:03:19;95146.19;;;13.12;52.52
3428;BME280;1727;42.624;23.406;2023-03-20T07:05:46;95142.03;;;13.29;53.74
3428;BME280;1727;42.624;23.406;2023-03-20T07:08:19;95144.22;;;13.43;52.77
3428;BME280;1727;42.624;23.406;2023-03-20T07:10:47;95148.22;;;13.67;51.21
3428;BME280;1727;42.624;23.406;2023-03-20T07:13:14;95145.66;;;13.84;50.58
3428;BME280;1727;42.624;23.406;2023-03-20T07:15:46;95147.69;;;14.00;50.64
3428;BME280;1727;42.624;23.406;2023-03-20T07:18:12;95153.00;;;14.27;50.49
3428;BME280;1727;42.624;23.406;2023-03-20T07:20:41;95145.50;;;14.60;49.17
3428;BME280;1727;42.624;23.406;2023-03-20T07:23:11;95149.53;;;14.82;48.83
3428;BME280;1727;42.624;23.406;2023-03-20T07:25:41;95144.03;;;15.11;49.33
3428;BME280;1727;42.624;23.406;2023-03-20T07:28:09;95138.28;;;15.33;47.48
3428;BME280;1727;42.624;23.406;2023-03-20T07:30:36;95132.84;;;15.17;47.67
3428;BME280;1727;42.624;23.406;2023-03-20T07:33:03;95132.53;;;15.20;47.59
3428;BME280;1727;42.624;23.406;2023-03-20T07:35:30;95135.50;;;15.35;49.29
3428;BME280;1727;42.624;23.406;2023-03-20T07:37:57;95137.88;;;15.46;47.60
3428;BME280;1727;42.624;23.406;2023-03-20T07:40:24;95123.16;;;15.43;47.42
3428;BME280;1727;42.624;23.406;2023-03-20T07:42:51;95130.72;;;15.38;48.23
3428;BME280;1727;42.624;23.406;2023-03-20T07:45:19;95137.28;;;14.99;47.18
3428;BME280;1727;42.624;23.406;2023-03-20T07:47:46;95133.66;;;14.64;47.53
3428;BME280;1727;42.624;23.406;2023-03-20T07:50:13;95124.88;;;14.46;47.99
3428;BME280;1727;42.624;23.406;2023-03-20T07:52:45;95133.91;;;14.43;48.80
3428;BME280;1727;42.624;23.406;2023-03-20T07:55:12;95130.56;;;14.41;48.68
3428;BME280;1727;42.624;23.406;2023-03-20T07:57:38;95126.09;;;14.42;48.94
3428;BME280;1727;42.624;23.406;2023-03-20T08:00:06;95130.44;;;14.43;49.31
3428;BME280;1727;42.624;23.406;2023-03-20T08:02:35;95135.56;;;14.44;48.88
3428;BME280;1727;42.624;23.406;2023-03-20T08:05:02;95134.16;;;14.40;49.66
3428;BME280;1727;42.624;23.406;2023-03-20T08:07:30;95130.84;;;14.48;49.40
3428;BME280;1727;42.624;23.406;2023-03-20T08:09:57;95144.72;;;14.50;50.00
3428;BME280;1727;42.624;23.406;2023-03-20T08:12:26;95133.34;;;14.49;49.96
3428;BME280;1727;42.624;23.406;2023-03-20T08:14:53;95135.47;;;14.64;49.39
3428;BME280;1727;42.624;23.406;2023-03-20T08:17:20;95136.34;;;14.54;50.22
3428;BME280;1727;42.624;23.406;2023-03-20T08:19:48;95138.63;;;14.40;50.46
3428;BME280;1727;42.624;23.406;2023-03-20T08:22:15;95141.19;;;14.59;50.88
3428;BME280;1727;42.624;23.406;2023-03-20T08:24:42;95145.75;;;14.84;51.16
3428;BME280;1727;42.624;23.406;2023-03-20T08:27:09;95149.09;;;15.04;50.00
3428;BME280;1727;42.624;23.406;2023-03-20T08:29:36;95150.50;;;14.99;49.48
3428;BME280;1727;42.624;23.406;2023-03-20T08:32:03;95143.72;;;15.14;49.36
3428;BME280;1727;42.624;23.406;2023-03-20T08:34:39;95151.19;;;15.18;49.39
3428;BME280;1727;42.624;23.406;2023-03-20T08:37:07;95147.78;;;15.26;49.01
3428;BME280;1727;42.624;23.406;2023-03-20T08:39:36;95146.59;;;15.38;49.75
3428;BME280;1727;42.624;23.406;2023-03-20T08:42:04;95149.97;;;15.48;50.30
3428;BME280;1727;42.624;23.406;2023-03-20T08:44:31;95143.34;;;15.62;48.93
3428;BME280;1727;42.624;23.406;2023-03-20T08:46:57;95141.25;;;15.74;48.65
3428;BME280;1727;42.624;23.406;2023-03-20T08:49:24;95136.13;;;15.55;48.17
3428;BME280;1727;42.624;23.406;2023-03-20T08:51:52;95128.81;;;15.66;48.12
3428;BME280;1727;42.624;23.406;2023-03-20T08:54:20;95131.38;;;15.84;48.20
3428;BME280;1727;42.624;23.406;2023-03-20T08:56:47;95125.28;;;16.18;48.21
3428;BME280;1727;42.624;23.406;2023-03-20T08:59:13;95122.72;;;16.34;47.00
3428;BME280;1727;42.624;23.406;2023-03-20T09:01:40;95123.78;;;16.49;46.43
3428;BME280;1727;42.624;23.406;2023-03-20T09:04:07;95120.81;;;16.52;45.18
3428;BME280;1727;42.624;23.406;2023-03-20T09:06:36;95118.84;;;16.62;45.57
3428;BME280;1727;42.624;23.406;2023-03-20T09:09:03;95114.34;;;16.55;46.05
3428;BME280;1727;42.624;23.406;2023-03-20T09:11:33;95112.22;;;16.58;47.26
3428;BME280;1727;42.624;23.406;2023-03-20T09:14:13;95113.59;;;16.70;46.01
3428;BME280;1727;42.624;23.406;2023-03-20T09:16:40;95112.88;;;16.60;45.79
3428;BME280;1727;42.624;23.406;2023-03-20T09:19:09;95117.66;;;16.57;45.18
3428;BME280;1727;42.624;23.406;2023-03-20T09:21:36;95115.44;;;16.44;46.16
3428;BME280;1727;42.624;23.406;2023-03-20T09:24:03;95108.72;;;16.58;46.38
3428;BME280;1727;42.624;23.406;2023-03-20T09:26:34;95104.09;;;16.60;45.79
3428;BME280;1727;42.624;23.406;2023-03-20T09:29:01;95097.63;;;16.54;45.68
3428;BME280;1727;42.624;23.406;2023-03-20T09:31:31;95098.13;;;16.58;45.69
3428;BME280;1727;42.624;23.406;2023-03-20T09:33:58;95098.50;;;16.71;45.68
3428;BME280;1727;42.624;23.406;2023-03-20T09:36:25;95095.31;;;16.59;45.72
3428;BME280;1727;42.624;23.406;2023-03-20T09:38:55;95090.22;;;16.74;45.58
3428;BME280;1727;42.624;23.406;2023-03-20T09:41:23;95086.13;;;16.80;45.09
3428;BME280;1727;42.624;23.406;2023-03-20T09:44:05;95091.44;;;16.96;45.64
3428;BME280;1727;42.624;23.406;2023-03-20T09:49:39;95065.44;;;17.16;44.24
3428;BME280;1727;42.624;23.406;2023-03-20T09:52:19;95055.50;;;17.18;44.40
3428;BME280;1727;42.624;23.406;2023-03-20T09:54:51;95065.34;;;16.59;44.54
3428;BME280;1727;42.624;23.406;2023-03-20T09:57:23;95052.97;;;16.76;45.18
3428;BME280;1727;42.624;23.406;2023-03-20T09:59:55;95047.03;;;16.90;44.28
3428;BME280;1727;42.624;23.406;2023-03-20T10:02:33;95037.75;;;16.86;44.96
3428;BME280;1727;42.624;23.406;2023-03-20T10:05:02;95041.72;;;16.82;44.96
3428;BME280;1727;42.624;23.406;2023-03-20T10:07:30;95028.97;;;16.77;44.53
3428;BME280;1727;42.624;23.406;2023-03-20T10:09:57;95024.13;;;16.64;44.47
3428;BME280;1727;42.624;23.406;2023-03-20T10:12:34;95023.44;;;16.62;45.32
3428;BME280;1727;42.624;23.406;2023-03-20T10:15:12;95012.09;;;16.78;44.52
3428;BME280;1727;42.624;23.406;2023-03-20T10:17:50;95005.13;;;16.93;42.45
3428;BME280;1727;42.624;23.406;2023-03-20T10:20:25;95010.44;;;16.77;42.57
3428;BME280;1727;42.624;23.406;2023-03-20T10:22:59;95002.13;;;16.72;42.31
3428;BME280;1727;42.624;23.406;2023-03-20T10:25:31;94998.84;;;16.78;43.73
3428;BME280;1727;42.624;23.406;2023-03-20T10:28:00;94990.56;;;16.81;42.67
3428;BME280;1727;42.624;23.406;2023-03-20T10:30:44;94995.50;;;17.00;43.81
3428;BME280;1727;42.624;23.406;2023-03-20T10:33:26;94998.47;;;17.06;43.26
3428;BME280;1727;42.624;23.406;2023-03-20T10:36:05;94993.34;;;16.88;43.29
3428;BME280;1727;42.624;23.406;2023-03-20T10:38:43;94980.44;;;17.09;43.37
3428;BME280;1727;42.624;23.406;2023-03-20T10:41:17;94979.53;;;17.33;42.48
3428;BME280;1727;42.624;23.406;2023-03-20T10:43:49;94969.78;;;17.25;42.28
3428;BME280;1727;42.624;23.406;2023-03-20T10:46:25;94973.41;;;17.41;43.35
3428;BME280;1727;42.624;23.406;2023-03-20T10:48:57;94961.16;;;17.40;42.78
3428;BME280;1727;42.624;23.406;2023-03-20T10:51:35;94965.28;;;17.34;41.75
3428;BME280;1727;42.624;23.406;2023-03-20T10:54:05;94959.97;;;17.42;41.76
3428;BME280;1727;42.624;23.406;2023-03-20T10:56:41;94966.06;;;17.51;43.14
3428;BME280;1727;42.624;23.406;2023-03-20T10:59:18;94960.25;;;17.55;40.80
3428;BME280;1727;42.624;23.406;2023-03-20T11:01:49;94955.84;;;17.40;41.76
3428;BME280;1727;42.624;23.406;2023-03-20T11:04:16;94948.19;;;17.45;41.84
3428;BME280;1727;42.624;23.406;2023-03-20T11:06:47;94951.28;;;17.56;41.71
3428;BME280;1727;42.624;23.406;2023-03-20T11:09:20;94944.31;;;17.72;41.57
3428;BME280;1727;42.624;23.406;2023-03-20T11:11:53;94938.44;;;17.84;41.76
3428;BME280;1727;42.624;23.406;2023-03-20T11:14:23;94934.72;;;18.02;41.07
3428;BME280;1727;42.624;23.406;2023-03-20T11:17:02;94926.63;;;17.87;39.80
3428;BME280;1727;42.624;23.406;2023-03-20T11:19:35;94921.50;;;17.93;40.08
3428;BME280;1727;42.624;23.406;2023-03-20T11:22:07;94907.22;;;17.94;39.95
3428;BME280;1727;42.624;23.406;2023-03-20T11:24:36;94920.50;;;18.17;38.67
3428;BME280;1727;42.624;23.406;2023-03-20T11:27:10;94921.47;;;18.24;37.57
3428;BME280;1727;42.624;23.406;2023-03-20T11:29:38;94908.94;;;18.33;38.14
3428;BME280;1727;42.624;23.406;2023-03-20T11:32:26;94907.94;;;18.34;38.61
3428;BME280;1727;42.624;23.406;2023-03-20T11:34:54;94904.28;;;18.35;36.22
3428;BME280;1727;42.624;23.406;2023-03-20T11:37:23;94898.72;;;18.45;37.88
3428;BME280;1727;42.624;23.406;2023-03-20T11:39:57;94889.22;;;18.50;37.64
3428;BME280;1727;42.624;23.406;2023-03-20T11:42:26;94885.84;;;18.56;37.09
3428;BME280;1727;42.624;23.406;2023-03-20T11:45:00;94896.25;;;18.66;36.29
3428;BME280;1727;42.624;23.406;2023-03-20T11:47:33;94888.84;;;18.76;41.27
3428;BME280;1727;42.624;23.406;2023-03-20T11:50:03;94881.75;;;18.92;38.48
3428;BME280;1727;42.624;23.406;2023-03-20T11:52:33;94877.16;;;19.00;37.02
3428;BME280;1727;42.624;23.406;2023-03-20T11:55:02;94876.91;;;19.10;36.92
3428;BME280;1727;42.624;23.406;2023-03-20T11:57:33;94863.06;;;19.14;36.18
3428;BME280;1727;42.624;23.406;2023-03-20T12:00:05;94861.69;;;19.18;35.71
3428;BME280;1727;42.624;23.406;2023-03-20T12:02:35;94849.00;;;19.06;35.10
3428;BME280;1727;42.624;23.406;2023-03-20T12:05:19;94849.81;;;19.06;35.49
3428;BME280;1727;42.624;23.406;2023-03-20T12:07:48;94849.81;;;19.06;34.67
3428;BME280;1727;42.624;23.406;2023-03-20T12:10:18;94833.16;;;19.12;35.35
3428;BME280;1727;42.624;23.406;2023-03-20T12:12:49;94846.63;;;19.26;34.67
3428;BME280;1727;42.624;23.406;2023-03-20T12:15:25;94849.91;;;19.28;33.61
3428;BME280;1727;42.624;23.406;2023-03-20T12:17:57;94832.03;;;19.22;33.25
3428;BME280;1727;42.624;23.406;2023-03-20T12:20:34;94840.66;;;19.38;33.65
3428;BME280;1727;42.624;23.406;2023-03-20T12:23:10;94830.03;;;19.38;33.11
3428;BME280;1727;42.624;23.406;2023-03-20T12:25:43;94829.53;;;19.49;32.41
3428;BME280;1727;42.624;23.406;2023-03-20T12:28:18;94820.91;;;19.47;31.36
3428;BME280;1727;42.624;23.406;2023-03-20T12:31:00;94823.84;;;19.53;32.28
3428;BME280;1727;42.624;23.406;2023-03-20T12:33:39;94817.41;;;19.62;32.94
3428;BME280;1727;42.624;23.406;2023-03-20T12:36:13;94808.91;;;19.66;33.49
3428;BME280;1727;42.624;23.406;2023-03-20T12:38:41;94811.81;;;19.71;32.21
3428;BME280;1727;42.624;23.406;2023-03-20T12:41:12;94808.97;;;19.73;32.02
3428;BME280;1727;42.624;23.406;2023-03-20T12:43:51;94809.78;;;19.73;31.04
3428;BME280;1727;42.624;23.406;2023-03-20T12:46:31;94807.38;;;19.78;32.13
3428;BME280;1727;42.624;23.406;2023-03-20T12:49:13;94804.59;;;19.87;32.56
3428;BME280;1727;42.624;23.406;2023-03-20T12:51:55;94789.25;;;19.89;31.36
3428;BME280;1727;42.624;23.406;2023-03-20T12:54:54;94792.63;;;19.97;31.20
3428;BME280;1727;42.624;23.406;2023-03-20T12:57:29;94785.72;;;20.03;32.84
3428;BME280;1727;42.624;23.406;2023-03-20T13:00:15;94787.16;;;20.05;34.06
3428;BME280;1727;42.624;23.406;2023-03-20T13:02:54;94781.66;;;20.07;32.33
3428;BME280;1727;42.624;23.406;2023-03-20T13:05:34;94773.41;;;20.02;30.93
3428;BME280;1727;42.624;23.406;2023-03-20T13:08:30;94775.69;;;20.05;30.75
3428;BME280;1727;42.624;23.406;2023-03-20T13:11:04;94768.75;;;20.10;30.75
3428;BME280;1727;42.624;23.406;2023-03-20T13:13:42;94760.91;;;20.02;30.54
3428;BME280;1727;42.624;23.406;2023-03-20T13:16:21;94765.91;;;20.12;30.82
3428;BME280;1727;42.624;23.406;2023-03-20T13:18:59;94768.19;;;20.15;30.04
3428;BME280;1727;42.624;23.406;2023-03-20T13:21:33;94766.09;;;20.10;30.13
3428;BME280;1727;42.624;23.406;2023-03-20T13:24:18;94763.25;;;20.12;29.85
3428;BME280;1727;42.624;23.406;2023-03-20T13:26:52;94748.50;;;20.16;29.54
3428;BME280;1727;42.624;23.406;2023-03-20T13:29:31;94744.06;;;20.23;30.08
3428;BME280;1727;42.624;23.406;2023-03-20T13:32:08;94738.50;;;20.18;29.27
3428;BME280;1727;42.624;23.406;2023-03-20T13:34:55;94734.22;;;20.24;30.22
3428;BME280;1727;42.624;23.406;2023-03-20T13:37:29;94731.56;;;20.24;29.26
3428;BME280;1727;42.624;23.406;2023-03-20T13:40:05;94731.63;;;20.30;29.31
3428;BME280;1727;42.624;23.406;2023-03-20T13:42:42;94722.00;;;20.29;29.00
3428;BME280;1727;42.624;23.406;2023-03-20T13:45:23;94718.69;;;20.27;28.70
3428;BME280;1727;42.624;23.406;2023-03-20T13:47:52;94718.81;;;20.19;28.66
3428;BME280;1727;42.624;23.406;2023-03-20T13:50:30;94719.31;;;20.29;29.04
3428;BME280;1727;42.624;23.406;2023-03-20T13:53:07;94715.66;;;20.30;28.65
3428;BME280;1727;42.624;23.406;2023-03-20T13:55:44;94710.06;;;20.25;27.74